Weather at Us Property & Fiscal Office Heliport

Public forecast

Using degrees Fahrenheit for public forecast. Weather courtesy of forecast.io.

Closest aviation weather report (METAR) to Us Property & Fiscal Office Heliport

Report is more than 6 hours old.

Closest report is Norwood Memorial Airport, 10.2 nm (19.0 km) ESE.

2022/11/14 14:53 (retrieved 2 years ago)

KOWD 141453Z 30012G19KT 10SM CLR 06/M06 A3022 RMK AO2 SLP231 T00611061 51020

Closest aviation forecast (TAF) to Us Property & Fiscal Office Heliport

Forecast is more than 12 hours old.

Closest forecast is Laurence G Hanscom Field, 11.7 nm (21.7 km) NNE.

2023/02/22 18:40 (retrieved 1 year ago)

TAF KBED 221738Z 2218/2318 27006KT P6SM BKN200 FM230200 00000KT 1SM -SN BR OVC003 FM230600 09005KT 1 1/2SM -PL BR OVC003 FM231400 05010KT 1 1/2SM -SN BR OVC008 FM231700 04011G18KT 2SM BR VCSH OVC008